createdAt,value
2019-02-21T00:02:10.200Z,9.35
2019-02-21T00:04:42.324Z,9.43
2019-02-21T00:07:14.096Z,9.35
2019-02-21T00:09:42.627Z,9.34
2019-02-21T00:12:13.074Z,9.28
2019-02-21T00:14:41.642Z,9.18
2019-02-21T00:17:13.286Z,9.31
2019-02-21T00:19:42.210Z,9.38
2019-02-21T00:22:15.604Z,9.37
2019-02-21T00:34:56.143Z,8.97
2019-02-21T00:40:31.274Z,9.15
2019-02-21T00:43:33.545Z,9.26
2019-02-21T00:46:06.124Z,9.11
2019-02-21T00:51:54.161Z,8.87
2019-02-21T00:54:53.651Z,8.87
2019-02-21T01:00:49.719Z,8.98
2019-02-21T01:03:18.590Z,9.04
2019-02-21T01:06:18.055Z,9.03
2019-02-21T01:11:39.875Z,9.15
2019-02-21T01:19:52.494Z,9.20
2019-02-21T01:25:11.965Z,9.20
2019-02-21T01:27:50.919Z,9.18
2019-02-21T01:30:19.696Z,9.12
2019-02-21T01:32:48.251Z,8.92
2019-02-21T01:35:16.718Z,8.79
2019-02-21T01:37:45.212Z,8.93
2019-02-21T01:40:13.641Z,8.85
2019-02-21T01:42:42.174Z,8.84
2019-02-21T01:45:13.171Z,8.86
2019-02-21T01:47:41.725Z,8.83
2019-02-21T01:50:12.571Z,8.80
2019-02-21T01:52:41.056Z,8.89
2019-02-21T01:55:11.378Z,8.92
2019-02-21T01:57:39.991Z,8.97
2019-02-21T02:00:14.742Z,8.92
2019-02-21T02:02:43.265Z,8.92
2019-02-21T02:05:11.648Z,8.97
2019-02-21T02:07:40.482Z,8.98
2019-02-21T02:10:08.966Z,8.97
2019-02-21T02:12:37.583Z,8.99
2019-02-21T02:15:09.873Z,8.94
2019-02-21T02:20:36.212Z,8.87
2019-02-21T02:23:04.543Z,8.87
2019-02-21T02:25:33.053Z,8.83
2019-02-21T02:28:01.799Z,8.81
2019-02-21T02:30:30.278Z,8.97
2019-02-21T02:32:58.702Z,8.97
2019-02-21T02:35:27.936Z,9.09
2019-02-21T02:37:56.898Z,9.00
2019-02-21T02:40:25.374Z,9.18
2019-02-21T02:42:54.132Z,9.23
2019-02-21T02:45:22.590Z,9.26
2019-02-21T02:47:50.998Z,9.22
2019-02-21T02:50:19.795Z,9.21
2019-02-21T02:52:48.536Z,9.34
2019-02-21T02:55:17.609Z,9.34
2019-02-21T02:57:46.077Z,9.29
2019-02-21T03:00:17.531Z,9.36
2019-02-21T03:02:46.191Z,9.43
2019-02-21T03:05:14.620Z,9.44
2019-02-21T03:07:43.430Z,9.57
2019-02-21T03:10:14.019Z,9.70
2019-02-21T03:12:42.990Z,9.58
2019-02-21T03:15:13.554Z,9.45
2019-02-21T03:17:42.041Z,9.27
2019-02-21T03:20:10.563Z,9.37
2019-02-21T03:22:39.215Z,9.38
2019-02-21T03:25:07.595Z,9.42
2019-02-21T03:27:36.044Z,9.44
2019-02-21T03:30:11.963Z,9.34
2019-02-21T03:32:38.448Z,9.38
2019-02-21T03:35:07.278Z,9.40
2019-02-21T03:37:36.288Z,9.45
2019-02-21T03:40:06.052Z,9.54
2019-02-21T03:42:34.822Z,9.59
2019-02-21T03:45:05.202Z,9.63
2019-02-21T03:47:41.333Z,9.63
2019-02-21T03:50:09.797Z,9.63
2019-02-21T03:52:52.872Z,9.75
2019-02-21T03:55:21.686Z,9.74
2019-02-21T03:57:56.693Z,9.84
2019-02-21T04:00:25.525Z,9.95
2019-02-21T04:02:54.045Z,9.78
2019-02-21T04:05:23.091Z,9.61
2019-02-21T04:07:53.119Z,9.39
2019-02-21T04:10:21.589Z,9.29
2019-02-21T04:12:50.704Z,9.21
2019-02-21T04:15:22.286Z,9.18
2019-02-21T04:17:52.164Z,9.21
2019-02-21T04:20:21.836Z,9.35
2019-02-21T04:22:50.823Z,9.51
2019-02-21T04:25:19.305Z,9.57
2019-02-21T04:27:47.867Z,9.55
2019-02-21T04:30:18.750Z,9.66
2019-02-21T04:32:47.949Z,9.62
2019-02-21T04:35:16.446Z,9.29
2019-02-21T04:37:46.931Z,9.44
2019-02-21T04:40:15.373Z,9.41
2019-02-21T04:42:59.830Z,9.47
2019-02-21T04:48:08.603Z,9.55
2019-02-21T04:50:37.441Z,9.31
2019-02-21T04:53:07.614Z,9.24
2019-02-21T04:55:37.552Z,9.28
2019-02-21T04:58:27.955Z,9.43
2019-02-21T05:01:29.855Z,9.33
2019-02-21T07:29:17.316Z,9.83
2019-02-21T07:44:22.701Z,10.42
2019-02-21T07:46:23.364Z,10.78
2019-02-21T07:49:32.679Z,10.94
2019-02-21T07:56:00.407Z,10.73
2019-02-21T07:58:57.585Z,10.69
2019-02-21T08:02:03.181Z,10.63
2019-02-21T08:13:47.646Z,11.78
2019-02-21T08:16:21.689Z,11.72
2019-02-21T08:18:58.360Z,11.93
2019-02-21T08:21:31.194Z,11.96
2019-02-21T08:24:03.444Z,12.10
2019-02-21T08:26:33.732Z,12.10
2019-02-21T08:29:13.190Z,12.30
2019-02-21T08:31:51.210Z,12.30
2019-02-21T08:34:48.724Z,12.60
2019-02-21T08:37:41.279Z,12.80
2019-02-21T08:40:49.263Z,12.73
2019-02-21T08:43:50.138Z,12.79
2019-02-21T08:46:21.338Z,12.93
2019-02-21T08:52:26.402Z,13.03
2019-02-21T09:10:24.426Z,12.21
2019-02-21T09:16:29.389Z,11.87
2019-02-21T09:20:10.967Z,11.89
2019-02-21T09:22:14.705Z,12.39
2019-02-21T09:27:50.367Z,12.73
2019-02-21T09:30:52.622Z,12.59
2019-02-21T09:38:52.315Z,12.38
2019-02-21T09:47:03.062Z,13.03
2019-02-21T10:05:25.318Z,14.90
2019-02-21T10:07:51.965Z,16.15
2019-02-21T10:11:11.634Z,15.16
2019-02-21T10:13:43.977Z,14.30
2019-02-21T10:16:34.880Z,14.69
2019-02-21T11:58:28.001Z,20.07
2019-02-21T12:08:20.271Z,20.06
2019-02-21T12:17:01.402Z,20.51
2019-02-21T12:29:45.927Z,19.78
2019-02-21T12:59:29.884Z,17.98
2019-02-21T14:28:32.944Z,16.68
2019-02-21T14:31:43.545Z,16.73
2019-02-21T14:33:55.966Z,16.67
2019-02-21T14:36:36.527Z,16.54
2019-02-21T14:39:10.625Z,16.77
2019-02-21T14:41:43.829Z,16.86
2019-02-21T14:44:15.433Z,16.77
2019-02-21T14:46:50.078Z,17.06
2019-02-21T14:49:19.117Z,17.11
2019-02-21T14:51:51.717Z,17.09
2019-02-21T14:54:25.933Z,17.18
2019-02-21T15:00:31.508Z,16.94
2019-02-21T15:03:38.832Z,16.96
2019-02-21T15:12:59.386Z,16.90
2019-02-21T15:15:37.927Z,16.97
2019-02-21T15:18:21.478Z,16.81
2019-02-21T15:20:56.592Z,16.88
2019-02-21T15:23:36.902Z,16.88
2019-02-21T15:26:14.812Z,16.97
2019-02-21T15:28:53.936Z,16.75
2019-02-21T15:34:31.112Z,16.62
2019-02-21T15:36:59.737Z,16.43
2019-02-21T15:39:30.028Z,16.56
2019-02-21T15:42:01.777Z,16.76
2019-02-21T15:44:35.218Z,16.91
2019-02-21T15:50:33.376Z,17.15
2019-02-21T15:53:35.318Z,17.07
2019-02-21T16:11:34.758Z,16.49
2019-02-21T17:50:05.001Z,15.91
2019-02-21T18:01:48.551Z,15.39
2019-02-21T18:04:24.203Z,15.37
2019-02-21T18:07:02.710Z,15.25
2019-02-21T18:09:32.853Z,14.95
2019-02-21T18:12:04.350Z,14.86
2019-02-21T18:14:37.807Z,14.83
2019-02-21T18:20:25.136Z,15.13
2019-02-21T18:29:11.574Z,15.23
2019-02-21T18:32:00.993Z,15.30
2019-02-21T18:39:26.460Z,15.50
2019-02-21T18:51:38.471Z,15.47
2019-02-21T18:56:27.247Z,15.09
2019-02-21T18:59:04.529Z,15.17
2019-02-21T19:07:42.681Z,15.05
2019-02-21T19:22:21.955Z,15.18
2019-02-21T19:28:39.667Z,15.22
2019-02-21T19:37:03.079Z,15.39
2019-02-21T19:39:53.730Z,15.40
2019-02-21T19:45:57.535Z,15.30
2019-02-21T19:51:35.266Z,15.51
2019-02-21T19:54:36.957Z,15.60
2019-02-21T20:06:07.389Z,15.57
2019-02-21T20:20:40.239Z,15.65
2019-02-21T20:23:45.632Z,15.71
2019-02-21T20:29:52.096Z,15.58
2019-02-21T20:32:35.083Z,15.51
2019-02-21T20:35:11.373Z,15.44
2019-02-21T20:37:48.492Z,15.14
2019-02-21T20:40:33.840Z,15.22
2019-02-21T20:43:05.618Z,15.42
2019-02-21T20:46:20.624Z,15.40
2019-02-21T20:55:11.265Z,15.52
2019-02-21T21:03:38.134Z,15.07
2019-02-21T21:16:12.968Z,14.45
2019-02-21T21:21:32.063Z,14.55
2019-02-21T21:24:09.961Z,14.48
2019-02-21T21:32:42.705Z,14.09
2019-02-21T21:35:40.266Z,14.05
2019-02-21T21:38:24.171Z,14.12
2019-02-21T21:44:13.417Z,13.95
2019-02-21T21:56:03.314Z,13.60
2019-02-21T21:59:04.393Z,13.53
2019-02-21T22:07:41.236Z,13.58
2019-02-21T22:10:10.704Z,13.64
2019-02-21T22:13:11.192Z,13.49
2019-02-21T22:15:48.565Z,13.22
2019-02-21T22:18:27.353Z,13.12
2019-02-21T22:20:57.444Z,13.17
2019-02-21T22:39:15.857Z,13.27
2019-02-21T22:41:38.806Z,13.22
2019-02-21T22:45:30.115Z,13.24
2019-02-21T22:47:08.798Z,13.27
2019-02-21T22:53:37.086Z,13.28
2019-02-21T22:56:18.517Z,13.17
2019-02-21T23:04:42.929Z,13.17
2019-02-21T23:07:35.771Z,13.27
2019-02-21T23:10:07.279Z,13.31
2019-02-21T23:12:41.574Z,13.26
2019-02-21T23:15:30.937Z,13.43
2019-02-21T23:18:06.676Z,13.44
2019-02-21T23:20:39.880Z,13.31
2019-02-21T23:23:09.564Z,13.32
2019-02-21T23:25:49.035Z,13.27
2019-02-21T23:28:21.415Z,13.27
2019-02-21T23:30:50.593Z,13.28
2019-02-21T23:33:28.561Z,13.29
2019-02-21T23:35:58.315Z,13.25
2019-02-21T23:38:28.780Z,13.04
2019-02-21T23:41:01.049Z,13.19
2019-02-21T23:43:42.760Z,13.23
2019-02-21T23:46:13.723Z,13.25
2019-02-21T23:48:48.045Z,13.23
2019-02-21T23:51:19.320Z,13.30
2019-02-21T23:53:49.390Z,13.25
2019-02-21T23:56:27.683Z,13.31
2019-02-21T23:59:02.473Z,13.27
